sensor_id;sensor_type;location;lat;lon;timestamp;P1;durP1;ratioP1;P2;durP2;ratioP2
828;SDS011;396;52.558;13.188;2022-09-09T00:02:15;7.60;;;3.20;;
828;SDS011;396;52.558;13.188;2022-09-09T00:04:48;8.47;;;3.20;;
828;SDS011;396;52.558;13.188;2022-09-09T00:07:28;7.17;;;3.33;;
828;SDS011;396;52.558;13.188;2022-09-09T00:10:09;5.60;;;3.07;;
828;SDS011;396;52.558;13.188;2022-09-09T00:12:44;6.63;;;3.10;;
828;SDS011;396;52.558;13.188;2022-09-09T00:15:20;6.60;;;3.60;;
828;SDS011;396;52.558;13.188;2022-09-09T00:17:51;7.13;;;3.53;;
828;SDS011;396;52.558;13.188;2022-09-09T00:20:24;7.57;;;3.47;;
828;SDS011;396;52.558;13.188;2022-09-09T00:22:57;10.17;;;3.43;;
828;SDS011;396;52.558;13.188;2022-09-09T00:25:31;6.40;;;2.90;;
828;SDS011;396;52.558;13.188;2022-09-09T00:28:04;7.73;;;3.60;;
828;SDS011;396;52.558;13.188;2022-09-09T00:30:40;7.80;;;3.40;;
828;SDS011;396;52.558;13.188;2022-09-09T00:33:09;7.37;;;2.97;;
828;SDS011;396;52.558;13.188;2022-09-09T00:35:41;5.27;;;2.73;;
828;SDS011;396;52.558;13.188;2022-09-09T00:38:10;7.47;;;3.60;;
828;SDS011;396;52.558;13.188;2022-09-09T00:40:41;6.77;;;3.53;;
828;SDS011;396;52.558;13.188;2022-09-09T00:43:19;5.60;;;2.57;;
828;SDS011;396;52.558;13.188;2022-09-09T00:45:55;5.80;;;2.43;;
828;SDS011;396;52.558;13.188;2022-09-09T00:48:35;6.80;;;3.37;;
828;SDS011;396;52.558;13.188;2022-09-09T00:51:15;6.63;;;3.30;;
828;SDS011;396;52.558;13.188;2022-09-09T00:53:56;6.10;;;2.87;;
828;SDS011;396;52.558;13.188;2022-09-09T00:56:37;5.87;;;2.83;;
828;SDS011;396;52.558;13.188;2022-09-09T00:59:12;9.57;;;3.80;;
828;SDS011;396;52.558;13.188;2022-09-09T01:01:46;6.90;;;3.07;;
828;SDS011;396;52.558;13.188;2022-09-09T01:04:13;6.90;;;3.30;;
828;SDS011;396;52.558;13.188;2022-09-09T01:06:46;7.27;;;3.80;;
828;SDS011;396;52.558;13.188;2022-09-09T01:09:24;6.60;;;3.53;;
828;SDS011;396;52.558;13.188;2022-09-09T01:11:57;6.37;;;3.40;;
828;SDS011;396;52.558;13.188;2022-09-09T01:14:35;6.30;;;2.60;;
828;SDS011;396;52.558;13.188;2022-09-09T01:17:08;7.70;;;3.00;;
828;SDS011;396;52.558;13.188;2022-09-09T01:19:45;5.77;;;2.87;;
828;SDS011;396;52.558;13.188;2022-09-09T01:22:25;6.80;;;3.17;;
828;SDS011;396;52.558;13.188;2022-09-09T01:25:16;5.70;;;3.30;;
828;SDS011;396;52.558;13.188;2022-09-09T01:27:49;9.10;;;4.20;;
828;SDS011;396;52.558;13.188;2022-09-09T01:30:20;5.93;;;2.93;;
828;SDS011;396;52.558;13.188;2022-09-09T01:32:48;6.60;;;3.10;;
828;SDS011;396;52.558;13.188;2022-09-09T01:35:19;6.43;;;3.60;;
828;SDS011;396;52.558;13.188;2022-09-09T01:37:55;7.37;;;3.20;;
828;SDS011;396;52.558;13.188;2022-09-09T01:40:21;6.63;;;3.47;;
828;SDS011;396;52.558;13.188;2022-09-09T01:42:51;7.27;;;3.93;;
828;SDS011;396;52.558;13.188;2022-09-09T01:45:18;8.80;;;3.77;;
828;SDS011;396;52.558;13.188;2022-09-09T01:47:45;9.03;;;4.37;;
828;SDS011;396;52.558;13.188;2022-09-09T01:50:12;7.77;;;3.80;;
828;SDS011;396;52.558;13.188;2022-09-09T01:52:40;8.53;;;3.43;;
828;SDS011;396;52.558;13.188;2022-09-09T01:55:09;6.90;;;3.67;;
828;SDS011;396;52.558;13.188;2022-09-09T01:57:38;8.13;;;3.70;;
828;SDS011;396;52.558;13.188;2022-09-09T02:00:13;5.43;;;2.97;;
828;SDS011;396;52.558;13.188;2022-09-09T02:02:43;6.17;;;3.23;;
828;SDS011;396;52.558;13.188;2022-09-09T02:05:17;8.07;;;3.70;;
828;SDS011;396;52.558;13.188;2022-09-09T02:07:55;7.40;;;3.10;;
828;SDS011;396;52.558;13.188;2022-09-09T02:10:28;6.53;;;3.30;;
828;SDS011;396;52.558;13.188;2022-09-09T02:12:59;6.10;;;3.10;;
828;SDS011;396;52.558;13.188;2022-09-09T02:15:32;8.20;;;3.73;;
828;SDS011;396;52.558;13.188;2022-09-09T02:18:04;8.63;;;3.77;;
828;SDS011;396;52.558;13.188;2022-09-09T02:20:35;9.17;;;3.70;;
828;SDS011;396;52.558;13.188;2022-09-09T02:23:04;7.50;;;3.37;;
828;SDS011;396;52.558;13.188;2022-09-09T02:25:33;5.90;;;2.90;;
828;SDS011;396;52.558;13.188;2022-09-09T02:28:02;6.87;;;2.83;;
828;SDS011;396;52.558;13.188;2022-09-09T02:30:33;7.73;;;3.37;;
828;SDS011;396;52.558;13.188;2022-09-09T02:33:02;6.87;;;3.10;;
828;SDS011;396;52.558;13.188;2022-09-09T02:35:31;6.03;;;2.93;;
828;SDS011;396;52.558;13.188;2022-09-09T02:38:02;6.13;;;3.03;;
828;SDS011;396;52.558;13.188;2022-09-09T02:40:33;9.00;;;3.80;;
828;SDS011;396;52.558;13.188;2022-09-09T02:42:59;7.70;;;3.37;;
828;SDS011;396;52.558;13.188;2022-09-09T02:45:27;8.17;;;3.77;;
828;SDS011;396;52.558;13.188;2022-09-09T02:48:14;6.80;;;3.47;;
828;SDS011;396;52.558;13.188;2022-09-09T02:50:45;9.67;;;4.03;;
828;SDS011;396;52.558;13.188;2022-09-09T02:53:19;6.90;;;3.10;;
828;SDS011;396;52.558;13.188;2022-09-09T02:55:51;7.67;;;3.57;;
828;SDS011;396;52.558;13.188;2022-09-09T02:58:21;7.90;;;3.20;;
828;SDS011;396;52.558;13.188;2022-09-09T03:00:49;7.43;;;3.57;;
828;SDS011;396;52.558;13.188;2022-09-09T03:03:19;7.70;;;4.17;;
828;SDS011;396;52.558;13.188;2022-09-09T03:05:47;7.00;;;3.27;;
828;SDS011;396;52.558;13.188;2022-09-09T03:08:13;6.90;;;3.17;;
828;SDS011;396;52.558;13.188;2022-09-09T03:10:40;7.00;;;3.30;;
828;SDS011;396;52.558;13.188;2022-09-09T03:13:06;5.83;;;3.20;;
828;SDS011;396;52.558;13.188;2022-09-09T03:15:33;8.10;;;3.47;;
828;SDS011;396;52.558;13.188;2022-09-09T03:18:00;6.70;;;3.10;;
828;SDS011;396;52.558;13.188;2022-09-09T03:20:29;6.80;;;3.47;;
828;SDS011;396;52.558;13.188;2022-09-09T03:22:56;8.23;;;3.47;;
828;SDS011;396;52.558;13.188;2022-09-09T03:25:24;8.83;;;3.37;;
828;SDS011;396;52.558;13.188;2022-09-09T03:27:51;8.03;;;3.50;;
828;SDS011;396;52.558;13.188;2022-09-09T03:30:19;6.40;;;3.00;;
828;SDS011;396;52.558;13.188;2022-09-09T03:32:46;7.87;;;3.97;;
828;SDS011;396;52.558;13.188;2022-09-09T03:35:13;6.83;;;3.00;;
828;SDS011;396;52.558;13.188;2022-09-09T03:37:41;8.80;;;3.83;;
828;SDS011;396;52.558;13.188;2022-09-09T03:40:08;5.50;;;2.97;;
828;SDS011;396;52.558;13.188;2022-09-09T03:42:35;11.73;;;4.20;;
828;SDS011;396;52.558;13.188;2022-09-09T03:45:02;9.73;;;3.90;;
828;SDS011;396;52.558;13.188;2022-09-09T03:47:29;7.07;;;3.17;;
828;SDS011;396;52.558;13.188;2022-09-09T03:49:55;9.43;;;3.87;;
828;SDS011;396;52.558;13.188;2022-09-09T03:52:21;7.70;;;3.67;;
828;SDS011;396;52.558;13.188;2022-09-09T03:54:51;6.57;;;3.00;;
828;SDS011;396;52.558;13.188;2022-09-09T03:57:18;6.57;;;3.27;;
828;SDS011;396;52.558;13.188;2022-09-09T03:59:44;6.30;;;2.70;;
828;SDS011;396;52.558;13.188;2022-09-09T04:02:10;6.17;;;3.43;;
828;SDS011;396;52.558;13.188;2022-09-09T04:04:37;8.10;;;3.83;;
828;SDS011;396;52.558;13.188;2022-09-09T04:07:04;7.30;;;3.63;;
828;SDS011;396;52.558;13.188;2022-09-09T04:09:31;8.53;;;3.47;;
828;SDS011;396;52.558;13.188;2022-09-09T04:11:59;7.30;;;3.70;;
828;SDS011;396;52.558;13.188;2022-09-09T04:14:26;7.40;;;3.30;;
828;SDS011;396;52.558;13.188;2022-09-09T04:16:53;7.47;;;3.50;;
828;SDS011;396;52.558;13.188;2022-09-09T04:19:22;5.90;;;2.83;;
828;SDS011;396;52.558;13.188;2022-09-09T04:21:48;7.40;;;3.40;;
828;SDS011;396;52.558;13.188;2022-09-09T04:24:16;7.70;;;3.53;;
828;SDS011;396;52.558;13.188;2022-09-09T04:26:43;5.20;;;2.80;;
828;SDS011;396;52.558;13.188;2022-09-09T04:29:11;7.87;;;3.87;;
828;SDS011;396;52.558;13.188;2022-09-09T04:31:38;5.63;;;2.53;;
828;SDS011;396;52.558;13.188;2022-09-09T04:34:06;7.90;;;3.37;;
828;SDS011;396;52.558;13.188;2022-09-09T04:36:33;8.40;;;3.33;;
828;SDS011;396;52.558;13.188;2022-09-09T04:39:00;4.83;;;2.37;;
828;SDS011;396;52.558;13.188;2022-09-09T04:41:26;8.00;;;3.67;;
828;SDS011;396;52.558;13.188;2022-09-09T04:43:53;9.30;;;3.70;;
828;SDS011;396;52.558;13.188;2022-09-09T04:46:22;6.63;;;3.43;;
828;SDS011;396;52.558;13.188;2022-09-09T04:48:49;7.80;;;3.20;;
828;SDS011;396;52.558;13.188;2022-09-09T04:51:16;8.87;;;3.30;;
828;SDS011;396;52.558;13.188;2022-09-09T04:53:42;6.03;;;3.13;;
828;SDS011;396;52.558;13.188;2022-09-09T04:56:09;7.93;;;3.60;;
828;SDS011;396;52.558;13.188;2022-09-09T04:58:37;5.83;;;2.63;;
828;SDS011;396;52.558;13.188;2022-09-09T05:01:06;12.93;;;4.00;;
828;SDS011;396;52.558;13.188;2022-09-09T05:03:35;9.17;;;3.10;;
828;SDS011;396;52.558;13.188;2022-09-09T05:06:03;6.10;;;2.73;;
828;SDS011;396;52.558;13.188;2022-09-09T05:08:31;7.03;;;4.27;;
828;SDS011;396;52.558;13.188;2022-09-09T05:10:57;7.80;;;3.53;;
828;SDS011;396;52.558;13.188;2022-09-09T05:13:25;9.70;;;3.30;;
828;SDS011;396;52.558;13.188;2022-09-09T05:15:52;7.43;;;3.10;;
828;SDS011;396;52.558;13.188;2022-09-09T05:18:18;5.60;;;2.73;;
828;SDS011;396;52.558;13.188;2022-09-09T05:20:46;7.27;;;3.00;;
828;SDS011;396;52.558;13.188;2022-09-09T05:23:13;8.30;;;3.10;;
828;SDS011;396;52.558;13.188;2022-09-09T05:25:39;10.23;;;3.20;;
828;SDS011;396;52.558;13.188;2022-09-09T05:28:06;7.20;;;3.40;;
828;SDS011;396;52.558;13.188;2022-09-09T05:30:33;5.40;;;2.83;;
828;SDS011;396;52.558;13.188;2022-09-09T05:32:59;5.37;;;2.43;;
828;SDS011;396;52.558;13.188;2022-09-09T05:35:26;13.73;;;3.53;;
828;SDS011;396;52.558;13.188;2022-09-09T05:37:54;6.50;;;2.93;;
828;SDS011;396;52.558;13.188;2022-09-09T05:40:25;6.60;;;3.43;;
828;SDS011;396;52.558;13.188;2022-09-09T05:42:51;5.47;;;2.77;;
828;SDS011;396;52.558;13.188;2022-09-09T05:45:18;7.43;;;2.87;;
828;SDS011;396;52.558;13.188;2022-09-09T05:47:45;5.73;;;2.97;;
828;SDS011;396;52.558;13.188;2022-09-09T05:50:18;6.50;;;2.67;;
828;SDS011;396;52.558;13.188;2022-09-09T05:52:44;6.23;;;2.90;;
828;SDS011;396;52.558;13.188;2022-09-09T05:55:12;7.47;;;3.30;;
828;SDS011;396;52.558;13.188;2022-09-09T05:57:38;5.10;;;2.20;;
828;SDS011;396;52.558;13.188;2022-09-09T06:00:05;7.37;;;2.47;;
828;SDS011;396;52.558;13.188;2022-09-09T06:02:33;5.70;;;2.50;;
828;SDS011;396;52.558;13.188;2022-09-09T06:05:02;5.53;;;2.43;;
828;SDS011;396;52.558;13.188;2022-09-09T06:07:28;6.17;;;3.10;;
828;SDS011;396;52.558;13.188;2022-09-09T06:09:55;5.20;;;2.20;;
828;SDS011;396;52.558;13.188;2022-09-09T06:12:22;5.53;;;2.30;;
828;SDS011;396;52.558;13.188;2022-09-09T06:14:49;6.37;;;3.20;;
828;SDS011;396;52.558;13.188;2022-09-09T06:17:16;5.47;;;3.00;;
828;SDS011;396;52.558;13.188;2022-09-09T06:19:43;7.83;;;2.90;;
828;SDS011;396;52.558;13.188;2022-09-09T06:22:09;6.50;;;2.53;;
828;SDS011;396;52.558;13.188;2022-09-09T06:24:37;5.50;;;2.80;;
828;SDS011;396;52.558;13.188;2022-09-09T06:27:03;4.87;;;2.60;;
828;SDS011;396;52.558;13.188;2022-09-09T06:29:33;6.07;;;3.10;;
828;SDS011;396;52.558;13.188;2022-09-09T06:31:59;5.37;;;2.40;;
828;SDS011;396;52.558;13.188;2022-09-09T06:34:26;8.23;;;3.53;;
828;SDS011;396;52.558;13.188;2022-09-09T06:36:53;4.80;;;2.53;;
828;SDS011;396;52.558;13.188;2022-09-09T06:39:22;6.33;;;2.87;;
828;SDS011;396;52.558;13.188;2022-09-09T06:41:49;6.07;;;2.63;;
828;SDS011;396;52.558;13.188;2022-09-09T06:44:18;5.43;;;2.10;;
828;SDS011;396;52.558;13.188;2022-09-09T06:46:46;5.60;;;2.47;;
828;SDS011;396;52.558;13.188;2022-09-09T06:49:13;4.67;;;1.80;;
828;SDS011;396;52.558;13.188;2022-09-09T06:51:39;8.80;;;2.20;;
828;SDS011;396;52.558;13.188;2022-09-09T06:54:07;6.57;;;2.50;;
828;SDS011;396;52.558;13.188;2022-09-09T06:56:35;5.90;;;2.20;;
828;SDS011;396;52.558;13.188;2022-09-09T06:59:03;5.93;;;1.90;;
828;SDS011;396;52.558;13.188;2022-09-09T07:01:33;5.60;;;2.27;;
828;SDS011;396;52.558;13.188;2022-09-09T07:04:03;4.63;;;2.13;;
828;SDS011;396;52.558;13.188;2022-09-09T07:06:33;4.63;;;1.90;;
828;SDS011;396;52.558;13.188;2022-09-09T07:09:01;5.03;;;2.10;;
828;SDS011;396;52.558;13.188;2022-09-09T07:11:30;6.03;;;2.53;;
828;SDS011;396;52.558;13.188;2022-09-09T07:13:59;6.27;;;2.77;;
828;SDS011;396;52.558;13.188;2022-09-09T07:16:26;5.70;;;2.27;;
828;SDS011;396;52.558;13.188;2022-09-09T07:18:54;5.83;;;2.43;;
828;SDS011;396;52.558;13.188;2022-09-09T07:21:24;5.73;;;2.50;;
828;SDS011;396;52.558;13.188;2022-09-09T07:23:52;15.73;;;2.40;;
828;SDS011;396;52.558;13.188;2022-09-09T07:26:20;4.30;;;2.17;;
828;SDS011;396;52.558;13.188;2022-09-09T07:28:48;5.67;;;2.47;;
828;SDS011;396;52.558;13.188;2022-09-09T07:31:16;6.37;;;1.70;;
828;SDS011;396;52.558;13.188;2022-09-09T07:33:43;4.60;;;1.87;;
828;SDS011;396;52.558;13.188;2022-09-09T07:36:12;4.63;;;1.80;;
828;SDS011;396;52.558;13.188;2022-09-09T07:38:42;4.00;;;1.70;;
828;SDS011;396;52.558;13.188;2022-09-09T07:41:11;6.77;;;1.83;;
828;SDS011;396;52.558;13.188;2022-09-09T07:43:39;4.00;;;1.70;;
828;SDS011;396;52.558;13.188;2022-09-09T07:46:06;4.63;;;1.93;;
828;SDS011;396;52.558;13.188;2022-09-09T07:48:33;3.83;;;1.30;;
828;SDS011;396;52.558;13.188;2022-09-09T07:51:04;4.20;;;1.40;;
828;SDS011;396;52.558;13.188;2022-09-09T07:53:33;6.17;;;1.97;;
828;SDS011;396;52.558;13.188;2022-09-09T07:56:06;4.90;;;1.53;;
828;SDS011;396;52.558;13.188;2022-09-09T07:58:34;5.70;;;1.57;;
828;SDS011;396;52.558;13.188;2022-09-09T08:01:05;4.10;;;1.60;;
828;SDS011;396;52.558;13.188;2022-09-09T08:03:33;4.00;;;1.60;;
828;SDS011;396;52.558;13.188;2022-09-09T08:06:00;4.00;;;1.63;;
828;SDS011;396;52.558;13.188;2022-09-09T08:08:27;4.97;;;1.63;;
828;SDS011;396;52.558;13.188;2022-09-09T08:10:58;5.33;;;1.50;;
828;SDS011;396;52.558;13.188;2022-09-09T08:13:29;13.13;;;1.40;;
828;SDS011;396;52.558;13.188;2022-09-09T08:16:03;5.97;;;1.77;;
828;SDS011;396;52.558;13.188;2022-09-09T08:18:30;4.87;;;1.40;;
828;SDS011;396;52.558;13.188;2022-09-09T08:20:57;4.07;;;1.40;;
828;SDS011;396;52.558;13.188;2022-09-09T08:23:23;4.27;;;1.43;;
828;SDS011;396;52.558;13.188;2022-09-09T08:25:50;3.97;;;1.57;;
828;SDS011;396;52.558;13.188;2022-09-09T08:28:17;3.73;;;1.10;;
828;SDS011;396;52.558;13.188;2022-09-09T08:30:45;3.93;;;1.30;;
828;SDS011;396;52.558;13.188;2022-09-09T08:33:13;4.50;;;1.27;;
828;SDS011;396;52.558;13.188;2022-09-09T08:35:39;4.80;;;1.43;;
828;SDS011;396;52.558;13.188;2022-09-09T08:38:06;3.30;;;0.93;;
828;SDS011;396;52.558;13.188;2022-09-09T08:40:33;3.53;;;1.37;;
828;SDS011;396;52.558;13.188;2022-09-09T08:43:09;3.93;;;1.30;;
828;SDS011;396;52.558;13.188;2022-09-09T08:45:37;3.23;;;1.10;;
828;SDS011;396;52.558;13.188;2022-09-09T08:48:19;5.03;;;1.13;;
828;SDS011;396;52.558;13.188;2022-09-09T08:51:00;8.63;;;1.37;;
828;SDS011;396;52.558;13.188;2022-09-09T08:53:27;4.60;;;1.33;;
828;SDS011;396;52.558;13.188;2022-09-09T08:55:57;5.93;;;0.87;;
828;SDS011;396;52.558;13.188;2022-09-09T08:58:26;5.33;;;0.97;;
828;SDS011;396;52.558;13.188;2022-09-09T09:00:58;3.73;;;1.30;;
828;SDS011;396;52.558;13.188;2022-09-09T09:03:38;3.10;;;0.90;;
828;SDS011;396;52.558;13.188;2022-09-09T09:06:15;5.03;;;1.20;;
828;SDS011;396;52.558;13.188;2022-09-09T09:08:54;3.40;;;1.20;;
828;SDS011;396;52.558;13.188;2022-09-09T09:11:27;3.83;;;1.07;;
828;SDS011;396;52.558;13.188;2022-09-09T09:14:01;3.30;;;1.10;;
828;SDS011;396;52.558;13.188;2022-09-09T09:16:34;6.37;;;1.80;;
828;SDS011;396;52.558;13.188;2022-09-09T09:19:09;4.83;;;1.07;;
828;SDS011;396;52.558;13.188;2022-09-09T09:21:41;4.93;;;1.33;;
828;SDS011;396;52.558;13.188;2022-09-09T09:24:12;4.63;;;1.23;;
828;SDS011;396;52.558;13.188;2022-09-09T09:26:44;3.53;;;1.03;;
828;SDS011;396;52.558;13.188;2022-09-09T09:29:11;4.30;;;1.60;;
828;SDS011;396;52.558;13.188;2022-09-09T09:31:41;2.93;;;0.70;;
828;SDS011;396;52.558;13.188;2022-09-09T09:34:12;5.80;;;1.30;;
828;SDS011;396;52.558;13.188;2022-09-09T09:36:39;3.63;;;1.13;;
828;SDS011;396;52.558;13.188;2022-09-09T09:39:09;3.50;;;1.20;;
828;SDS011;396;52.558;13.188;2022-09-09T09:41:36;6.93;;;1.00;;
828;SDS011;396;52.558;13.188;2022-09-09T09:44:05;4.50;;;1.23;;
828;SDS011;396;52.558;13.188;2022-09-09T09:46:32;3.33;;;1.07;;
828;SDS011;396;52.558;13.188;2022-09-09T09:48:59;2.90;;;0.80;;
828;SDS011;396;52.558;13.188;2022-09-09T09:51:28;3.20;;;0.90;;
828;SDS011;396;52.558;13.188;2022-09-09T09:54:06;3.23;;;0.87;;
828;SDS011;396;52.558;13.188;2022-09-09T09:56:40;6.80;;;1.17;;
828;SDS011;396;52.558;13.188;2022-09-09T09:59:18;4.17;;;0.93;;
828;SDS011;396;52.558;13.188;2022-09-09T10:01:46;3.63;;;1.10;;
828;SDS011;396;52.558;13.188;2022-09-09T10:04:14;3.70;;;1.20;;
828;SDS011;396;52.558;13.188;2022-09-09T10:06:44;3.60;;;1.00;;
828;SDS011;396;52.558;13.188;2022-09-09T10:09:20;2.97;;;0.80;;
828;SDS011;396;52.558;13.188;2022-09-09T10:11:50;3.40;;;0.90;;
828;SDS011;396;52.558;13.188;2022-09-09T10:14:23;3.47;;;0.73;;
828;SDS011;396;52.558;13.188;2022-09-09T10:17:05;3.00;;;0.80;;
828;SDS011;396;52.558;13.188;2022-09-09T10:19:46;5.23;;;1.03;;
828;SDS011;396;52.558;13.188;2022-09-09T10:22:27;3.00;;;0.80;;
828;SDS011;396;52.558;13.188;2022-09-09T10:27:59;3.47;;;1.00;;
828;SDS011;396;52.558;13.188;2022-09-09T10:30:46;3.63;;;1.23;;
828;SDS011;396;52.558;13.188;2022-09-09T10:33:25;3.27;;;0.73;;
828;SDS011;396;52.558;13.188;2022-09-09T10:35:59;3.67;;;1.20;;
828;SDS011;396;52.558;13.188;2022-09-09T10:38:29;3.43;;;1.00;;
828;SDS011;396;52.558;13.188;2022-09-09T10:41:09;4.33;;;1.43;;
828;SDS011;396;52.558;13.188;2022-09-09T10:43:56;3.43;;;0.87;;
828;SDS011;396;52.558;13.188;2022-09-09T10:46:40;3.50;;;1.00;;
828;SDS011;396;52.558;13.188;2022-09-09T10:49:21;3.27;;;1.00;;
828;SDS011;396;52.558;13.188;2022-09-09T10:51:57;4.10;;;0.93;;
828;SDS011;396;52.558;13.188;2022-09-09T10:54:36;4.67;;;1.20;;
828;SDS011;396;52.558;13.188;2022-09-09T10:57:13;4.90;;;1.20;;
828;SDS011;396;52.558;13.188;2022-09-09T10:59:45;3.80;;;1.10;;
828;SDS011;396;52.558;13.188;2022-09-09T11:02:16;2.77;;;0.70;;
828;SDS011;396;52.558;13.188;2022-09-09T11:04:49;2.90;;;0.70;;
828;SDS011;396;52.558;13.188;2022-09-09T11:07:24;3.00;;;0.83;;
828;SDS011;396;52.558;13.188;2022-09-09T11:09:58;3.10;;;0.90;;
828;SDS011;396;52.558;13.188;2022-09-09T11:12:28;3.87;;;1.00;;
828;SDS011;396;52.558;13.188;2022-09-09T11:14:57;2.70;;;0.60;;
828;SDS011;396;52.558;13.188;2022-09-09T11:17:30;3.40;;;1.00;;
828;SDS011;396;52.558;13.188;2022-09-09T11:20:02;3.03;;;0.70;;
828;SDS011;396;52.558;13.188;2022-09-09T11:22:32;2.80;;;0.70;;
828;SDS011;396;52.558;13.188;2022-09-09T11:25:05;3.97;;;0.90;;
828;SDS011;396;52.558;13.188;2022-09-09T11:27:41;3.40;;;0.90;;
828;SDS011;396;52.558;13.188;2022-09-09T11:30:18;3.20;;;0.90;;
828;SDS011;396;52.558;13.188;2022-09-09T11:32:59;2.87;;;0.70;;
828;SDS011;396;52.558;13.188;2022-09-09T11:35:47;2.80;;;0.83;;
828;SDS011;396;52.558;13.188;2022-09-09T11:38:27;2.70;;;0.60;;
828;SDS011;396;52.558;13.188;2022-09-09T11:40:59;3.03;;;0.70;;
828;SDS011;396;52.558;13.188;2022-09-09T11:43:30;4.40;;;0.80;;
828;SDS011;396;52.558;13.188;2022-09-09T11:45:59;3.00;;;0.63;;
828;SDS011;396;52.558;13.188;2022-09-09T11:48:31;2.73;;;0.63;;
828;SDS011;396;52.558;13.188;2022-09-09T11:51:00;4.60;;;0.60;;
828;SDS011;396;52.558;13.188;2022-09-09T11:53:30;2.87;;;0.70;;
828;SDS011;396;52.558;13.188;2022-09-09T11:56:10;2.90;;;0.73;;
828;SDS011;396;52.558;13.188;2022-09-09T11:58:40;2.70;;;0.60;;
828;SDS011;396;52.558;13.188;2022-09-09T12:01:25;3.33;;;0.83;;
828;SDS011;396;52.558;13.188;2022-09-09T12:03:55;2.70;;;0.60;;
828;SDS011;396;52.558;13.188;2022-09-09T12:06:41;3.23;;;0.70;;
828;SDS011;396;52.558;13.188;2022-09-09T12:09:13;2.97;;;0.60;;
828;SDS011;396;52.558;13.188;2022-09-09T12:11:46;3.03;;;0.60;;
828;SDS011;396;52.558;13.188;2022-09-09T12:14:19;2.80;;;0.60;;
828;SDS011;396;52.558;13.188;2022-09-09T12:16:47;2.83;;;0.77;;
828;SDS011;396;52.558;13.188;2022-09-09T12:19:16;2.80;;;0.63;;
828;SDS011;396;52.558;13.188;2022-09-09T12:21:46;3.00;;;0.77;;
828;SDS011;396;52.558;13.188;2022-09-09T12:24:21;2.83;;;0.70;;
828;SDS011;396;52.558;13.188;2022-09-09T12:26:55;4.50;;;0.80;;
828;SDS011;396;52.558;13.188;2022-09-09T12:29:32;3.20;;;0.80;;
828;SDS011;396;52.558;13.188;2022-09-09T12:32:09;4.13;;;0.50;;
828;SDS011;396;52.558;13.188;2022-09-09T12:34:38;3.77;;;0.83;;
828;SDS011;396;52.558;13.188;2022-09-09T12:37:11;2.90;;;0.50;;
828;SDS011;396;52.558;13.188;2022-09-09T12:39:44;3.13;;;0.80;;
828;SDS011;396;52.558;13.188;2022-09-09T12:42:18;3.03;;;0.80;;
828;SDS011;396;52.558;13.188;2022-09-09T12:44:53;3.10;;;0.57;;
828;SDS011;396;52.558;13.188;2022-09-09T12:47:21;2.83;;;0.53;;
828;SDS011;396;52.558;13.188;2022-09-09T12:49:51;2.87;;;0.60;;
828;SDS011;396;52.558;13.188;2022-09-09T12:52:22;4.10;;;0.60;;
828;SDS011;396;52.558;13.188;2022-09-09T12:54:54;2.90;;;0.70;;
828;SDS011;396;52.558;13.188;2022-09-09T12:57:23;3.00;;;0.70;;
828;SDS011;396;52.558;13.188;2022-09-09T12:59:51;5.13;;;0.83;;
828;SDS011;396;52.558;13.188;2022-09-09T13:02:19;2.87;;;0.57;;
828;SDS011;396;52.558;13.188;2022-09-09T13:04:47;2.93;;;0.70;;
828;SDS011;396;52.558;13.188;2022-09-09T13:07:15;4.40;;;0.80;;
828;SDS011;396;52.558;13.188;2022-09-09T13:09:42;3.20;;;0.73;;
828;SDS011;396;52.558;13.188;2022-09-09T13:12:11;4.73;;;0.70;;
828;SDS011;396;52.558;13.188;2022-09-09T13:14:42;2.90;;;0.60;;
828;SDS011;396;52.558;13.188;2022-09-09T13:17:15;2.70;;;0.50;;
828;SDS011;396;52.558;13.188;2022-09-09T13:19:45;3.83;;;0.60;;
828;SDS011;396;52.558;13.188;2022-09-09T13:22:13;2.80;;;0.63;;
828;SDS011;396;52.558;13.188;2022-09-09T13:24:43;3.40;;;0.90;;
828;SDS011;396;52.558;13.188;2022-09-09T13:27:28;2.70;;;0.60;;
828;SDS011;396;52.558;13.188;2022-09-09T13:29:57;2.90;;;0.70;;
828;SDS011;396;52.558;13.188;2022-09-09T13:32:24;2.60;;;0.50;;
828;SDS011;396;52.558;13.188;2022-09-09T13:34:53;2.80;;;0.67;;
828;SDS011;396;52.558;13.188;2022-09-09T13:37:22;4.07;;;1.00;;
828;SDS011;396;52.558;13.188;2022-09-09T13:39:52;3.03;;;0.73;;
828;SDS011;396;52.558;13.188;2022-09-09T13:42:22;3.00;;;0.77;;
828;SDS011;396;52.558;13.188;2022-09-09T13:44:51;3.33;;;1.00;;
828;SDS011;396;52.558;13.188;2022-09-09T13:47:20;5.30;;;0.70;;
828;SDS011;396;52.558;13.188;2022-09-09T13:49:48;11.57;;;1.23;;
828;SDS011;396;52.558;13.188;2022-09-09T13:52:15;3.10;;;0.73;;
828;SDS011;396;52.558;13.188;2022-09-09T13:54:46;3.77;;;1.00;;
828;SDS011;396;52.558;13.188;2022-09-09T13:57:14;3.27;;;0.93;;
828;SDS011;396;52.558;13.188;2022-09-09T13:59:42;3.20;;;0.80;;
828;SDS011;396;52.558;13.188;2022-09-09T14:02:08;3.53;;;0.80;;
828;SDS011;396;52.558;13.188;2022-09-09T14:04:36;3.53;;;0.77;;
828;SDS011;396;52.558;13.188;2022-09-09T14:07:03;3.67;;;0.93;;
828;SDS011;396;52.558;13.188;2022-09-09T14:09:29;3.00;;;0.90;;
828;SDS011;396;52.558;13.188;2022-09-09T14:11:56;2.97;;;0.83;;
828;SDS011;396;52.558;13.188;2022-09-09T14:14:22;3.97;;;0.80;;
828;SDS011;396;52.558;13.188;2022-09-09T14:16:50;3.10;;;0.70;;
828;SDS011;396;52.558;13.188;2022-09-09T14:19:16;2.70;;;0.57;;
828;SDS011;396;52.558;13.188;2022-09-09T14:21:44;2.90;;;0.70;;
828;SDS011;396;52.558;13.188;2022-09-09T14:24:11;5.63;;;1.17;;
828;SDS011;396;52.558;13.188;2022-09-09T14:26:37;2.80;;;0.70;;
828;SDS011;396;52.558;13.188;2022-09-09T14:29:04;2.80;;;0.73;;
828;SDS011;396;52.558;13.188;2022-09-09T14:31:30;3.30;;;0.80;;
828;SDS011;396;52.558;13.188;2022-09-09T14:33:57;2.80;;;0.60;;
828;SDS011;396;52.558;13.188;2022-09-09T14:36:24;2.73;;;0.60;;
828;SDS011;396;52.558;13.188;2022-09-09T14:38:52;2.80;;;0.60;;
828;SDS011;396;52.558;13.188;2022-09-09T14:41:19;3.93;;;0.77;;
828;SDS011;396;52.558;13.188;2022-09-09T14:43:47;3.27;;;0.80;;
828;SDS011;396;52.558;13.188;2022-09-09T14:46:14;3.90;;;0.70;;
828;SDS011;396;52.558;13.188;2022-09-09T14:48:42;5.27;;;1.10;;
828;SDS011;396;52.558;13.188;2022-09-09T14:51:11;2.90;;;0.80;;
828;SDS011;396;52.558;13.188;2022-09-09T14:53:38;4.80;;;0.90;;
828;SDS011;396;52.558;13.188;2022-09-09T14:56:07;3.17;;;0.73;;
828;SDS011;396;52.558;13.188;2022-09-09T14:58:35;3.90;;;0.83;;
828;SDS011;396;52.558;13.188;2022-09-09T15:01:03;2.80;;;0.50;;
828;SDS011;396;52.558;13.188;2022-09-09T15:03:31;3.10;;;0.77;;
828;SDS011;396;52.558;13.188;2022-09-09T15:05:58;2.70;;;0.60;;
828;SDS011;396;52.558;13.188;2022-09-09T15:08:24;3.20;;;0.60;;
828;SDS011;396;52.558;13.188;2022-09-09T15:10:51;3.00;;;0.60;;
828;SDS011;396;52.558;13.188;2022-09-09T15:13:26;3.00;;;0.60;;
828;SDS011;396;52.558;13.188;2022-09-09T15:15:53;3.17;;;0.90;;
828;SDS011;396;52.558;13.188;2022-09-09T15:18:20;3.10;;;0.57;;
828;SDS011;396;52.558;13.188;2022-09-09T15:20:46;3.20;;;0.83;;
828;SDS011;396;52.558;13.188;2022-09-09T15:23:13;4.20;;;0.60;;
828;SDS011;396;52.558;13.188;2022-09-09T15:25:49;3.67;;;0.60;;
828;SDS011;396;52.558;13.188;2022-09-09T15:28:16;2.90;;;0.70;;
828;SDS011;396;52.558;13.188;2022-09-09T15:30:44;3.27;;;0.80;;
828;SDS011;396;52.558;13.188;2022-09-09T15:33:13;4.70;;;0.90;;
828;SDS011;396;52.558;13.188;2022-09-09T15:35:40;2.80;;;0.60;;
828;SDS011;396;52.558;13.188;2022-09-09T15:38:06;3.53;;;0.90;;
828;SDS011;396;52.558;13.188;2022-09-09T15:40:32;2.90;;;0.70;;
828;SDS011;396;52.558;13.188;2022-09-09T15:42:59;3.60;;;0.87;;
828;SDS011;396;52.558;13.188;2022-09-09T15:45:25;4.67;;;0.80;;
828;SDS011;396;52.558;13.188;2022-09-09T15:47:53;2.90;;;0.67;;
828;SDS011;396;52.558;13.188;2022-09-09T15:50:20;4.03;;;0.87;;
828;SDS011;396;52.558;13.188;2022-09-09T15:52:47;2.73;;;0.60;;